CDT,Max TemperatureF,Mean TemperatureF,Min TemperatureF,Max Dew PointF,MeanDew PointF,Min DewpointF,Max Humidity, Mean Humidity, Min Humidity, Max Sea Level PressureIn, Mean Sea Level PressureIn, Min Sea Level PressureIn, Max VisibilityMiles, Mean VisibilityMiles, Min VisibilityMiles, Max Wind SpeedMPH, Mean Wind SpeedMPH, Max Gust SpeedMPH,PrecipitationIn, CloudCover, Events, WindDirDegrees
2013-3-1,27,26,24,22,19,16,88,76,63,30.35,30.26,30.16,10,8,2,17,11,21,T,8,Snow,2
2013-3-2,30,22,13,17,15,10,92,75,58,30.36,30.30,30.21,10,10,9,16,6,18,0.00,2,,292
2013-3-3,31,27,22,24,20,17,84,74,63,30.19,30.03,29.91,10,8,2,18,10,23,0.01,6,Snow,127
2013-3-4,34,30,26,29,27,24,92,87,82,29.98,29.89,29.80,9,5,1,18,12,25,0.03,8,Snow,91
2013-3-5,31,28,24,28,23,19,92,81,69,30.32,30.06,29.94,10,6,1,30,16,37,0.09,8,Snow,320
2013-3-6,28,20,12,20,18,11,88,78,68,30.45,30.38,30.30,10,10,2,21,10,25,0.00,6,,348
2013-3-7,30,18,5,23,14,1,100,86,72,30.40,30.35,30.29,7,5,2,15,6,18,0.00,1,,118
2013-3-8,39,31,23,35,27,20,96,86,75,30.32,30.23,30.06,8,6,3,17,10,25,0.07,2,Rain,125
2013-3-9,38,37,35,38,36,34,100,96,92,30.04,29.83,29.68,5,3,0,17,9,25,0.64,8,Fog-Rain,128
2013-3-10,38,34,30,38,33,28,100,96,92,29.79,29.72,29.66,10,3,0,28,17,37,0.65,8,Fog-Rain-Snow,359
2013-3-11,30,26,22,28,24,18,100,88,75,29.96,29.80,29.73,10,5,1,25,16,33,0.01,7,Snow,321
2013-3-12,32,24,16,27,20,12,88,79,69,30.27,30.09,29.97,10,7,2,29,16,39,T,6,Snow,297
2013-3-13,27,21,14,20,15,11,92,80,68,30.48,30.39,30.24,10,10,10,18,6,23,0.00,0,,298
2013-3-14,44,33,21,33,27,17,92,77,62,30.32,30.15,30.09,10,9,4,16,7,20,0.00,2,,159
2013-3-15,50,39,27,41,32,27,100,88,76,30.07,29.87,29.74,7,3,2,16,5,20,0.00,2,,61
2013-3-16,35,30,25,33,25,18,96,80,64,30.24,30.06,29.83,10,8,2,28,15,35,0.00,7,,349
2013-3-17,37,29,20,27,22,14,84,74,63,30.22,30.04,29.86,10,10,10,21,13,26,T,4,,94
2013-3-18,34,26,18,31,23,10,100,80,60,30.01,29.80,29.70,10,6,1,29,19,41,0.16,7,Snow,239
2013-3-19,33,24,14,21,13,5,81,69,56,30.30,30.20,30.08,10,10,10,24,14,31,0.00,2,,310
2013-3-20,26,20,13,11,8,3,74,61,47,30.36,30.28,30.18,10,10,8,25,17,31,T,3,Snow,322
2013-3-21,32,21,10,17,11,5,77,63,49,30.17,30.10,30.02,10,10,10,14,5,17,0.00,0,,43
2013-3-22,37,27,17,22,17,12,84,66,47,30.10,30.08,30.03,10,10,10,12,4,13,0.00,3,,56
2013-3-23,38,31,23,23,21,18,84,66,47,30.15,30.10,30.05,10,10,7,16,8,21,0.00,4,,21
2013-3-24,31,29,27,27,26,23,92,82,72,30.06,29.95,29.90,10,2,0,21,15,28,0.03,8,Fog-Snow,345
2013-3-25,36,32,27,27,24,19,92,77,61,30.28,30.07,29.97,10,7,2,24,16,31,T,6,Snow,341
2013-3-26,38,30,22,25,22,17,92,73,54,30.36,30.32,30.29,10,10,10,18,8,23,0.00,1,,294
2013-3-27,45,34,22,28,25,21,96,73,49,30.37,30.33,30.28,10,9,4,10,3,22,0.00,0,,148
2013-3-28,53,40,26,36,30,25,85,66,46,30.33,30.29,30.24,10,9,6,14,5,17,0.00,2,,116
2013-3-29,60,44,28,36,33,27,92,65,37,30.30,30.22,30.13,10,9,4,14,6,18,0.00,0,,138
2013-3-30,57,47,36,49,42,33,100,85,70,30.09,29.96,29.88,10,5,2,14,4,16,0.11,5,Rain,158
2013-3-31,50,39,28,39,33,21,100,77,53,30.12,29.94,29.89,10,6,0,28,14,35,0.00,3,Fog,314